• Join FlightAware (Why Join?)
  • Login
  • US Flag 
09:46AM EDT


 

Airport Tracker/Info


-or-


 

Live Flight TrackerFlight Track Log ✈ N8800G ✈ 06-Jun-2013 ✈ KDTW - KMDT

Flight Track Log - Related Links

Times and Time Zones

All times are in EDT time to prevent confusion due to time zone crossing. See the N8800G flight status page for this flight to view local times or setup timezone preferences in your user account.

Time Position Orientation Groundspeed Altitude Reporting Facility
EDT Latitude Longitude Course Direction KTS MPH feet Rate Location/Type
03:44PM 42.2272 -83.3369 90° East 147 169 1,100  Level Cleveland Center
03:45PM 42.2694 -83.3050 29° Northeast 193 222 3,200 1,920 Climbing Cleveland Center
03:46PM 42.3439 -83.2492 29° Northeast 270 311 5,700 2,100 Climbing Cleveland Center
03:47PM 42.3478 -83.1650 86° East 295 339 8,000 2,340 Climbing Cleveland Center
03:48PM 42.3292 -83.0603 103° East 289 333 10,300 1,620 Climbing Cleveland Center
03:49PM 42.2167 -82.4673 90° East  Level FlightAware Approximate
03:49PM 42.3089 -82.9417 103° East 304 350 11,300  Level Cleveland Center
03:50PM 42.2844 -82.8089 104° East 336 387 12,900 1,740 Climbing Cleveland Center
03:51PM 42.2619 -82.6761 103° East 357 411 14,800 1,440 Climbing Cleveland Center
03:52PM 42.2372 -82.5350 103° East 369 425 15,800 1,200 Climbing Cleveland Center
03:53PM 42.2189 -82.3858 99° East 382 440 17,200 1,320 Climbing Cleveland Center
03:54PM 42.2086 -82.2314 95° East 398 458 18,500 1,140 Climbing Cleveland Center
03:55PM 42.1903 -82.0600 98° East 414 476 19,500 960 Climbing Cleveland Center
03:56PM 42.1692 -81.9028 100° East 430 495 20,500 960 Climbing Cleveland Center
03:57PM 42.1500 -81.7425 99° East 430 495 21,500 960 Climbing Cleveland Center
03:58PM 42.0739 -81.6378 134° Southeast 381 438 22,500 660 Climbing Cleveland Center
03:59PM 41.9789 -81.5550 147° Southeast 395 455 22,900 360 Climbing Cleveland Center
04:00PM 41.8919 -81.4814 148° Southeast 405 466 23,300 420 Climbing Cleveland Center
04:01PM 41.7903 -81.3992 149° Southeast 421 484 23,800 600 Climbing Cleveland Center
04:02PM 41.6928 -81.3117 146° Southeast 427 491 24,600 840 Climbing Cleveland Center
04:03PM 41.5933 -81.2300 148° Southeast 427 491 25,500 840 Climbing Cleveland Center
04:04PM 41.4958 -81.1208 140° Southeast 427 491 26,300 720 Climbing Cleveland Center
04:05PM 41.4422 -80.9736 116° Southeast 426 490 27,000 300 Climbing Cleveland Center
04:06PM 41.3844 -80.8267 118° Southeast 431 496 27,000  Level Cleveland Center
04:07PM 41.3261 -80.6744 117° Southeast 451 519 27,000  Level Cleveland Center
04:08PM 41.2658 -80.5222 118° Southeast 462 532 27,000  Level Cleveland Center
04:09PM 41.2072 -80.3706 117° Southeast 462 532 27,000  Level Cleveland Center
04:10PM 41.1528 -80.2300 117° Southeast 462 532 27,000  Level Cleveland Center
04:11PM 41.0917 -80.0789 118° Southeast 462 532 27,000  Level Cleveland Center
04:12PM 41.0306 -79.9281 118° Southeast 462 532 27,000 -60 Level Cleveland Center
04:13PM 40.9692 -79.7747 118° Southeast 462 532 26,900 -600 Descending Cleveland Center
04:14PM 40.9075 -79.6269 119° Southeast 457 526 25,800 -1,080 Descending Cleveland Center
04:15PM 40.8497 -79.4769 117° Southeast 457 526 24,800 -960 Descending Cleveland Center
04:16PM 40.7878 -79.3300 119° Southeast 457 526 23,900 -960 Descending Cleveland Center
04:17PM 40.7300 -79.1883 118° Southeast 451 519 22,900 -1,020 Descending Cleveland Center
04:18PM 40.6697 -79.0447 119° Southeast 446 513 21,900 -960 Descending Cleveland Center
04:19PM 40.6050 -78.8931 119° Southeast 446 513 21,000 -480 Descending Cleveland Center
04:20PM 40.5486 -78.7550 118° Southeast 435 501 21,000 -120 Level Cleveland Center
04:21PM 40.5211 -78.6000 103° East 430 495 20,800 -900 Descending Cleveland Center
04:22PM 40.5036 -78.4450 98° East 430 495 19,300 -1,560 Descending Cleveland Center
04:23PM 40.4706 -78.2197 101° East 402 463 16,900 -1,560 Descending New York Center
04:24PM 40.4503 -78.0756 100° East 396 456 15,400 -1,560 Descending New York Center
04:25PM 40.4297 -77.9344 101° East 396 456 13,900 -1,500 Descending New York Center
04:26PM 40.4111 -77.7961 100° East 396 456 12,400 -1,560 Descending New York Center
04:27PM 40.3911 -77.6714 102° East 379 436 10,900 -1,500 Descending New York Center
04:28PM 40.3750 -77.5581 101° East 330 380 9,400 -1,560 Descending New York Center
04:29PM 40.3594 -77.4611 102° East 298 343 7,800 -1,620 Descending New York Center
04:30PM 40.3444 -77.3589 101° East 274 315 6,200 -1,440 Descending New York Center
04:31PM 40.3322 -77.2761 101° East 258 297 5,000 -660 Descending New York Center
04:32PM 40.3222 -77.1933 99° East 227 261 5,000 -360 Level New York Center
04:33PM 40.3133 -77.1300 100° East 195 224 4,300 -540 Descending New York Center
04:34PM 40.3025 -77.0581 101° East 190 219 4,000 -180 Descending New York Center
04:35PM 40.2844 -77.0019 113° Southeast 179 206 4,000 -540 Level New York Center
04:36PM 40.2608 -76.9400 117° Southeast 174 200 3,000 -660 Descending New York Center
04:37PM 40.2444 -76.8922 114° Southeast 167 192 2,700 -300 Descending New York Center